Terminal Aerodrome Forecast
Issued by NWS San Angelo, TX

Home | Current Version | Previous Version | Text Only | Print | Product List | Glossary On
Versions: 1 2 3 4 5 6 7 8 9 10 11 12 13 14
000
FTUS44 KSJT 281126 CCA
TAFABI
TAF COR
KABI 281126Z 2812/2912 20012G20KT P6SM SCT250
     FM281500 25010KT P6SM SCT250
     FM281700 33007KT P6SM BKN250
     FM282200 15012KT P6SM SCT080 BKN250=

USA.gov is the U.S. government's official web portal to all federal, state and local government web resources and services.